createdAt,value
2024-03-05T00:00:17.483Z,86.69
2024-03-05T00:02:44.369Z,86.94
2024-03-05T00:05:11.523Z,86.89
2024-03-05T00:07:38.163Z,87.03
2024-03-05T00:10:05.002Z,87.13
2024-03-05T00:12:31.986Z,87.75
2024-03-05T00:14:58.641Z,87.78
2024-03-05T00:17:25.267Z,88.28
2024-03-05T00:19:52.270Z,87.70
2024-03-05T00:22:22.299Z,88.21
2024-03-05T00:24:49.023Z,87.89
2024-03-05T00:27:15.625Z,87.89
2024-03-05T00:29:42.318Z,88.24
2024-03-05T00:32:09.022Z,88.03
2024-03-05T00:34:35.871Z,88.44
2024-03-05T00:37:02.623Z,88.33
2024-03-05T00:39:29.261Z,88.00
2024-03-05T00:41:55.944Z,88.07
2024-03-05T00:44:22.587Z,88.63
2024-03-05T00:46:49.263Z,89.13
2024-03-05T00:49:16.041Z,89.32
2024-03-05T00:51:42.828Z,89.21
2024-03-05T00:54:09.505Z,89.03
2024-03-05T00:56:36.176Z,89.47
2024-03-05T00:59:02.840Z,89.39
2024-03-05T01:01:29.534Z,89.36
2024-03-05T01:03:56.181Z,89.90
2024-03-05T01:06:22.795Z,89.91
2024-03-05T01:08:49.416Z,90.18
2024-03-05T01:11:16.114Z,89.84
2024-03-05T01:13:42.866Z,89.56
2024-03-05T01:16:09.571Z,89.20
2024-03-05T01:18:36.184Z,89.44
2024-03-05T01:21:02.839Z,89.60
2024-03-05T01:23:29.495Z,89.53
2024-03-05T01:25:56.167Z,90.09
2024-03-05T01:28:22.942Z,89.61
2024-03-05T01:30:49.650Z,90.73
2024-03-05T01:33:16.318Z,90.39
2024-03-05T01:35:43.035Z,89.93
2024-03-05T01:38:09.629Z,89.85
2024-03-05T01:40:36.282Z,90.29
2024-03-05T01:43:02.998Z,90.37
2024-03-05T01:45:29.644Z,90.87
2024-03-05T01:47:56.353Z,91.07
2024-03-05T01:50:23.016Z,91.03
2024-03-05T01:52:49.739Z,91.16
2024-03-05T01:55:16.414Z,91.04
2024-03-05T01:57:43.285Z,90.53
2024-03-05T02:00:10.558Z,91.42
2024-03-05T02:02:37.665Z,91.16
2024-03-05T02:05:04.529Z,91.46
2024-03-05T02:07:31.239Z,90.21
2024-03-05T02:09:57.979Z,90.73
2024-03-05T02:12:24.737Z,90.69
2024-03-05T02:14:51.400Z,90.47
2024-03-05T02:17:18.119Z,90.64
2024-03-05T02:19:48.373Z,91.14
2024-03-05T02:22:15.125Z,91.44
2024-03-05T02:24:41.744Z,91.31
2024-03-05T02:27:11.904Z,91.29
2024-03-05T02:29:41.076Z,92.02
2024-03-05T02:32:08.021Z,91.74
2024-03-05T02:34:34.960Z,92.41
2024-03-05T02:37:01.671Z,91.48
2024-03-05T02:39:28.261Z,91.52
2024-03-05T02:41:54.908Z,91.96
2024-03-05T02:44:21.624Z,91.58
2024-03-05T02:46:48.246Z,91.05
2024-03-05T02:49:15.224Z,91.53
2024-03-05T02:51:42.144Z,91.71
2024-03-05T02:54:08.780Z,92.44
2024-03-05T02:56:35.375Z,92.09
2024-03-05T02:59:02.122Z,92.90
2024-03-05T03:01:28.825Z,92.61
2024-03-05T03:03:55.482Z,92.70
2024-03-05T03:06:22.055Z,93.55
2024-03-05T03:08:48.641Z,92.62
2024-03-05T03:11:16.247Z,93.41
2024-03-05T03:13:42.987Z,93.42
2024-03-05T03:16:09.612Z,93.10
2024-03-05T03:18:36.326Z,92.72
2024-03-05T03:21:03.021Z,93.53
2024-03-05T03:23:29.781Z,93.47
2024-03-05T03:25:56.476Z,93.42
2024-03-05T03:28:23.135Z,92.95
2024-03-05T03:30:49.778Z,93.74
2024-03-05T03:33:16.456Z,93.47
2024-03-05T03:35:43.056Z,93.49
2024-03-05T03:38:09.675Z,93.47
2024-03-05T03:40:36.302Z,93.06
2024-03-05T03:43:02.960Z,92.66
2024-03-05T03:45:29.607Z,92.41
2024-03-05T03:47:56.260Z,92.38
2024-03-05T03:50:22.954Z,92.99
2024-03-05T03:52:49.772Z,92.65
2024-03-05T03:55:17.089Z,92.78
2024-03-05T03:57:44.112Z,92.52
2024-03-05T04:00:11.298Z,92.52
2024-03-05T04:02:37.951Z,92.15
2024-03-05T04:05:07.564Z,92.34
2024-03-05T04:07:34.358Z,92.31
2024-03-05T04:10:01.029Z,92.68
2024-03-05T04:12:28.435Z,92.83
2024-03-05T04:14:55.662Z,92.81
2024-03-05T04:17:22.412Z,92.93
2024-03-05T04:19:49.076Z,92.57
2024-03-05T04:22:15.770Z,92.71
2024-03-05T04:24:42.621Z,92.95
2024-03-05T04:27:09.206Z,93.05
2024-03-05T04:29:35.872Z,93.24
2024-03-05T04:32:02.477Z,93.07
2024-03-05T04:34:29.152Z,92.99
2024-03-05T04:36:57.862Z,92.88
2024-03-05T04:39:26.000Z,92.83
2024-03-05T04:41:52.671Z,92.60
2024-03-05T04:44:19.322Z,92.48
2024-03-05T04:46:46.003Z,92.53
2024-03-05T04:49:12.638Z,92.20
2024-03-05T04:51:39.235Z,92.23
2024-03-05T04:54:05.938Z,92.49
2024-03-05T04:56:32.633Z,92.03
2024-03-05T04:58:59.378Z,92.59
2024-03-05T05:01:26.193Z,92.12
2024-03-05T05:03:52.930Z,92.10
2024-03-05T05:06:19.510Z,91.65
2024-03-05T05:08:46.133Z,92.05
2024-03-05T05:11:12.853Z,92.39
2024-03-05T05:13:39.552Z,92.30
2024-03-05T05:16:06.508Z,92.31
2024-03-05T05:18:33.235Z,92.30
2024-03-05T05:20:59.909Z,92.15
2024-03-05T05:23:26.640Z,91.86
2024-03-05T05:25:53.321Z,91.73
2024-03-05T05:28:20.015Z,91.65
2024-03-05T05:30:46.685Z,91.59
2024-03-05T05:33:13.429Z,92.01
2024-03-05T05:35:40.018Z,92.64
2024-03-05T05:38:07.802Z,92.15
2024-03-05T05:40:34.450Z,92.23
2024-03-05T05:43:01.076Z,92.22
2024-03-05T05:45:27.698Z,92.19
2024-03-05T05:47:54.396Z,92.33
2024-03-05T05:50:21.725Z,92.32
2024-03-05T05:52:49.668Z,91.58
2024-03-05T05:55:17.819Z,91.48
2024-03-05T05:57:48.129Z,91.53
2024-03-05T06:00:25.886Z,91.90
2024-03-05T06:02:55.342Z,91.96
2024-03-05T06:05:27.127Z,91.91
2024-03-05T06:07:53.774Z,91.52
2024-03-05T06:10:20.654Z,91.90
2024-03-05T06:12:47.261Z,91.64
2024-03-05T06:15:13.876Z,91.63
2024-03-05T06:17:40.934Z,91.51
2024-03-05T06:20:09.291Z,91.31
2024-03-05T06:22:36.000Z,91.45
2024-03-05T06:25:02.652Z,91.81
2024-03-05T06:27:29.228Z,91.33
2024-03-05T06:29:55.834Z,90.97
2024-03-05T06:32:22.449Z,91.38
2024-03-05T06:34:49.178Z,91.12
2024-03-05T06:37:15.924Z,91.18
2024-03-05T06:39:42.565Z,90.77
2024-03-05T06:42:09.201Z,90.51
2024-03-05T06:44:35.842Z,90.92
2024-03-05T06:47:02.554Z,90.84
2024-03-05T06:49:29.391Z,90.75
2024-03-05T06:51:56.158Z,90.86
2024-03-05T06:54:22.860Z,90.19
2024-03-05T06:56:49.482Z,90.55
2024-03-05T06:59:16.139Z,90.56
2024-03-05T07:01:42.875Z,90.45
2024-03-05T07:04:09.532Z,90.78
2024-03-05T07:06:36.183Z,90.34
2024-03-05T07:09:02.748Z,90.26
2024-03-05T07:11:29.522Z,89.88
2024-03-05T07:13:56.171Z,89.88
2024-03-05T07:16:23.508Z,89.98
2024-03-05T07:18:51.679Z,90.19
2024-03-05T07:21:18.864Z,90.04
2024-03-05T07:23:45.468Z,89.72
2024-03-05T07:26:12.156Z,89.59
2024-03-05T07:28:38.882Z,89.25
2024-03-05T07:31:05.495Z,89.15
2024-03-05T07:33:32.168Z,89.00
2024-03-05T07:35:58.765Z,88.78
2024-03-05T07:38:25.410Z,88.55
2024-03-05T07:40:52.038Z,88.95
2024-03-05T07:43:18.712Z,88.60
2024-03-05T07:45:47.488Z,88.69
2024-03-05T07:48:15.500Z,87.75
2024-03-05T07:50:42.483Z,87.44
2024-03-05T07:53:09.391Z,86.61
2024-03-05T07:55:42.845Z,87.21
2024-03-05T07:58:12.855Z,87.94
2024-03-05T08:00:39.466Z,86.95
2024-03-05T08:03:06.148Z,86.45
2024-03-05T08:05:32.707Z,86.58
2024-03-05T08:07:59.429Z,86.37
2024-03-05T08:10:26.588Z,85.66
2024-03-05T08:12:54.182Z,85.60
2024-03-05T08:15:20.886Z,85.38
2024-03-05T08:17:48.448Z,84.88
2024-03-05T08:20:21.726Z,84.29
2024-03-05T08:22:48.527Z,84.42
2024-03-05T08:25:15.738Z,84.38
2024-03-05T08:27:48.691Z,83.59
2024-03-05T08:30:20.533Z,82.43
2024-03-05T08:32:47.229Z,83.08
2024-03-05T08:35:13.880Z,82.39
2024-03-05T08:37:41.112Z,81.88
2024-03-05T08:40:11.720Z,81.60
2024-03-05T08:42:38.312Z,81.59
2024-03-05T08:45:05.304Z,80.72
2024-03-05T08:47:32.049Z,80.35
2024-03-05T08:49:58.819Z,79.90
2024-03-05T08:52:25.625Z,79.07
2024-03-05T08:54:52.274Z,79.15
2024-03-05T08:57:18.859Z,79.11
2024-03-05T08:59:45.532Z,78.55
2024-03-05T09:02:12.121Z,76.94
2024-03-05T09:04:38.758Z,75.96
2024-03-05T09:07:05.329Z,74.24
2024-03-05T09:09:31.958Z,74.81
2024-03-05T09:11:58.686Z,74.71
2024-03-05T09:14:26.812Z,74.38
2024-03-05T09:16:53.428Z,74.62
2024-03-05T09:19:21.112Z,74.12
2024-03-05T09:21:47.692Z,73.15
2024-03-05T09:24:14.360Z,73.13
2024-03-05T09:26:41.022Z,73.40
2024-03-05T09:29:07.653Z,73.40
2024-03-05T09:31:34.353Z,73.06
2024-03-05T09:34:00.919Z,73.34
2024-03-05T09:36:27.464Z,72.60
2024-03-05T09:38:54.006Z,72.12
2024-03-05T09:41:20.514Z,72.40
2024-03-05T09:43:47.231Z,72.52
2024-03-05T09:46:14.396Z,71.67
2024-03-05T09:48:41.082Z,72.07
2024-03-05T09:51:10.915Z,72.80
2024-03-05T09:53:38.022Z,71.81
2024-03-05T09:56:05.086Z,71.22
2024-03-05T09:58:40.889Z,71.05
2024-03-05T10:01:09.903Z,70.79
2024-03-05T10:03:39.135Z,71.45
2024-03-05T10:06:06.387Z,70.69
2024-03-05T10:08:33.089Z,71.00
2024-03-05T10:11:04.701Z,69.61
2024-03-05T10:13:35.404Z,70.54
2024-03-05T10:16:20.950Z,70.53
2024-03-05T10:18:47.947Z,70.40
2024-03-05T10:21:21.102Z,71.15
2024-03-05T10:23:56.789Z,70.20
2024-03-05T10:26:23.623Z,70.75
2024-03-05T10:28:50.181Z,69.85
2024-03-05T10:31:21.435Z,69.47
2024-03-05T10:33:48.104Z,69.28
2024-03-05T10:36:26.768Z,69.49
2024-03-05T10:38:53.698Z,69.37
2024-03-05T10:41:39.223Z,69.07
2024-03-05T10:44:13.650Z,68.86
2024-03-05T10:46:40.381Z,68.92
2024-03-05T10:49:07.933Z,69.48
2024-03-05T10:51:41.762Z,68.94
2024-03-05T10:54:08.980Z,69.03
2024-03-05T10:56:43.375Z,69.33
2024-03-05T10:59:11.299Z,68.18
2024-03-05T11:01:38.602Z,67.37
2024-03-05T11:04:15.681Z,67.18
2024-03-05T11:06:42.401Z,67.00
2024-03-05T11:09:12.068Z,66.98
2024-03-05T11:11:39.635Z,66.63
2024-03-05T11:14:06.690Z,66.65
2024-03-05T11:16:34.240Z,66.62
2024-03-05T11:19:04.179Z,65.43
2024-03-05T11:21:30.779Z,65.47
2024-03-05T11:23:57.353Z,65.43
2024-03-05T11:26:25.276Z,66.42
2024-03-05T11:29:06.679Z,66.54
2024-03-05T11:31:33.351Z,65.89
2024-03-05T11:34:12.399Z,65.47
2024-03-05T11:36:39.092Z,64.80
2024-03-05T11:39:05.713Z,65.78
2024-03-05T11:41:33.240Z,65.37
2024-03-05T11:43:59.930Z,64.73
2024-03-05T11:46:48.697Z,63.78
2024-03-05T11:49:16.214Z,65.04
2024-03-05T11:51:46.686Z,65.15
2024-03-05T11:54:18.669Z,64.92
2024-03-05T11:56:47.751Z,63.84
2024-03-05T11:59:14.420Z,62.75
2024-03-05T12:01:44.409Z,62.46
2024-03-05T12:04:11.515Z,63.48
2024-03-05T12:06:39.444Z,62.89
2024-03-05T12:09:16.085Z,63.37
2024-03-05T12:11:42.698Z,62.87
2024-03-05T12:14:09.977Z,62.11
2024-03-05T12:16:37.434Z,62.82
2024-03-05T12:19:04.105Z,62.64
2024-03-05T12:21:33.234Z,63.02
2024-03-05T12:24:00.170Z,60.94
2024-03-05T12:26:26.850Z,61.20
2024-03-05T12:28:53.932Z,60.47
2024-03-05T12:31:20.632Z,60.40
2024-03-05T12:33:47.253Z,57.69
2024-03-05T12:36:13.908Z,56.71
2024-03-05T12:38:40.479Z,57.04
2024-03-05T12:41:07.167Z,56.63
2024-03-05T12:43:35.180Z,56.19
2024-03-05T12:46:01.851Z,56.46
2024-03-05T12:48:28.457Z,56.62
2024-03-05T12:50:55.093Z,55.73
2024-03-05T12:53:21.590Z,55.81
2024-03-05T12:55:48.226Z,55.63
2024-03-05T12:58:14.917Z,55.91
2024-03-05T13:00:41.495Z,55.61
2024-03-05T13:03:08.718Z,55.31
2024-03-05T13:05:36.140Z,54.96
2024-03-05T13:08:03.106Z,53.82
2024-03-05T13:10:29.848Z,54.24
2024-03-05T13:12:56.457Z,54.04
2024-03-05T13:15:23.109Z,53.10
2024-03-05T13:17:49.725Z,52.28
2024-03-05T13:20:16.493Z,48.34
2024-03-05T13:22:43.122Z,48.84
2024-03-05T13:25:09.778Z,48.99
2024-03-05T13:27:36.416Z,49.98
2024-03-05T13:30:10.045Z,45.52
2024-03-05T13:32:39.558Z,42.91
2024-03-05T13:35:06.489Z,42.86
2024-03-05T13:37:33.312Z,44.02
2024-03-05T13:39:59.979Z,42.86
2024-03-05T13:42:26.649Z,45.60
2024-03-05T13:44:53.216Z,47.26
2024-03-05T13:47:19.801Z,48.41
2024-03-05T13:49:46.395Z,48.31
2024-03-05T13:52:13.098Z,49.41
2024-03-05T13:54:39.994Z,44.24
2024-03-05T13:57:06.636Z,37.69
2024-03-05T13:59:33.249Z,34.84
2024-03-05T14:02:00.861Z,31.68
2024-03-05T14:04:27.602Z,29.43
2024-03-05T14:06:54.182Z,29.46
2024-03-05T14:09:20.835Z,34.52
2024-03-05T14:11:48.229Z,38.40
2024-03-05T14:14:16.018Z,41.97
2024-03-05T14:16:42.611Z,45.28
2024-03-05T14:19:09.259Z,46.74
2024-03-05T14:21:36.000Z,48.72
2024-03-05T14:24:02.608Z,48.52
2024-03-05T14:26:29.288Z,49.17
2024-03-05T14:28:55.932Z,50.11
2024-03-05T14:31:22.740Z,49.97
2024-03-05T14:33:49.777Z,50.92
2024-03-05T14:36:16.391Z,50.38
2024-03-05T14:38:43.021Z,51.49
2024-03-05T14:41:09.788Z,51.68
2024-03-05T14:43:36.767Z,51.50
2024-03-05T14:46:03.543Z,51.65
2024-03-05T14:48:30.393Z,51.17
2024-03-05T14:50:57.302Z,50.36
2024-03-05T14:53:23.975Z,51.78
2024-03-05T14:55:50.614Z,52.95
2024-03-05T14:58:17.238Z,53.37
2024-03-05T15:00:43.831Z,53.50
2024-03-05T15:03:10.415Z,53.80
2024-03-05T15:05:37.043Z,54.44
2024-03-05T15:08:04.033Z,53.91
2024-03-05T15:10:30.923Z,52.61
2024-03-05T15:12:57.583Z,52.24
2024-03-05T15:15:24.246Z,52.36
2024-03-05T15:17:51.330Z,53.46
2024-03-05T15:20:18.526Z,53.39
2024-03-05T15:22:48.790Z,54.30
2024-03-05T15:25:16.132Z,50.95
2024-03-05T15:27:45.703Z,50.93
2024-03-05T15:30:13.800Z,52.20
2024-03-05T15:32:43.479Z,53.14
2024-03-05T15:35:09.974Z,53.64
2024-03-05T15:37:36.622Z,52.74
2024-03-05T15:40:03.269Z,52.05
2024-03-05T15:42:29.885Z,52.00
2024-03-05T15:44:56.452Z,50.42
2024-03-05T15:47:23.224Z,51.01
2024-03-05T15:49:49.869Z,51.06
2024-03-05T15:52:16.551Z,52.32
2024-03-05T15:54:43.129Z,52.96
2024-03-05T15:57:09.740Z,53.21
2024-03-05T15:59:36.328Z,53.40
2024-03-05T16:02:03.012Z,54.91
2024-03-05T16:04:48.976Z,54.99
2024-03-05T16:07:16.364Z,54.95
2024-03-05T16:09:43.029Z,55.78
2024-03-05T16:12:11.960Z,55.68
2024-03-05T16:14:39.777Z,57.84
2024-03-05T16:17:06.440Z,59.01
2024-03-05T16:19:33.103Z,59.36
2024-03-05T16:21:59.816Z,61.42
2024-03-05T16:24:26.446Z,61.47
2024-03-05T16:26:53.021Z,63.03
2024-03-05T16:29:19.644Z,63.15
2024-03-05T16:31:46.375Z,63.90
2024-03-05T16:34:12.977Z,63.58
2024-03-05T16:36:39.636Z,63.93
2024-03-05T16:39:06.314Z,64.20
2024-03-05T16:41:34.233Z,65.24
2024-03-05T16:44:01.839Z,65.45
2024-03-05T16:46:29.448Z,66.21
2024-03-05T16:48:56.088Z,66.42
2024-03-05T16:51:22.702Z,66.36
2024-03-05T16:53:49.310Z,66.61
2024-03-05T16:56:16.064Z,66.43
2024-03-05T16:58:42.758Z,65.80
2024-03-05T17:01:09.422Z,66.04
2024-03-05T17:03:36.166Z,65.88
2024-03-05T17:06:02.771Z,65.74
2024-03-05T17:08:29.384Z,65.75
2024-03-05T17:10:56.159Z,65.64
2024-03-05T17:13:23.227Z,66.35
2024-03-05T17:15:50.056Z,65.95
2024-03-05T17:18:16.728Z,66.51
2024-03-05T17:20:43.311Z,66.90
2024-03-05T17:23:10.027Z,66.79
2024-03-05T17:25:36.727Z,66.38
2024-03-05T17:28:03.303Z,66.55
2024-03-05T17:30:29.891Z,67.04
2024-03-05T17:32:56.575Z,67.24
2024-03-05T17:35:23.231Z,67.23
2024-03-05T17:37:49.892Z,66.25
2024-03-05T17:40:16.486Z,66.01
2024-03-05T17:42:43.646Z,65.68
2024-03-05T17:45:12.212Z,65.17
2024-03-05T17:47:39.515Z,65.47
2024-03-05T17:50:12.761Z,64.75
2024-03-05T17:52:40.287Z,65.23
2024-03-05T17:55:08.478Z,65.82
2024-03-05T17:57:42.278Z,66.12
2024-03-05T18:00:09.165Z,66.46
2024-03-05T18:02:35.799Z,66.24
2024-03-05T18:05:02.505Z,67.03
2024-03-05T18:07:29.194Z,67.89
2024-03-05T18:09:55.851Z,68.76
2024-03-05T18:12:22.499Z,69.12
2024-03-05T18:14:49.103Z,69.52
2024-03-05T18:17:15.786Z,70.44
2024-03-05T18:19:42.494Z,70.82
2024-03-05T18:22:09.126Z,71.09
2024-03-05T18:24:35.748Z,71.30
2024-03-05T18:27:02.355Z,71.81
2024-03-05T18:29:28.962Z,72.69
2024-03-05T18:31:55.612Z,73.26
2024-03-05T18:34:22.170Z,73.04
2024-03-05T18:36:48.774Z,74.33
2024-03-05T18:39:15.354Z,75.24
2024-03-05T18:41:41.949Z,75.23
2024-03-05T18:44:08.665Z,75.50
2024-03-05T18:46:35.290Z,76.76
2024-03-05T18:49:01.888Z,76.60
2024-03-05T18:51:28.536Z,76.94
2024-03-05T18:53:55.147Z,77.15
2024-03-05T18:56:21.754Z,78.04
2024-03-05T18:58:48.484Z,77.85
2024-03-05T19:01:15.269Z,78.70
2024-03-05T19:03:42.396Z,79.76
2024-03-05T19:06:08.987Z,79.51
2024-03-05T19:08:35.561Z,79.80
2024-03-05T19:11:02.250Z,79.87
2024-03-05T19:13:28.965Z,80.37
2024-03-05T19:15:55.563Z,80.56
2024-03-05T19:18:22.269Z,80.64
2024-03-05T19:20:48.934Z,81.49
2024-03-05T19:23:15.605Z,80.97
2024-03-05T19:25:42.276Z,81.34
2024-03-05T19:28:08.870Z,81.67
2024-03-05T19:30:35.497Z,82.19
2024-03-05T19:33:02.131Z,82.65
2024-03-05T19:35:28.782Z,82.37
2024-03-05T19:37:56.179Z,82.58
2024-03-05T19:40:22.823Z,82.90
2024-03-05T19:42:49.779Z,82.95
2024-03-05T19:45:16.398Z,82.51
2024-03-05T19:47:43.124Z,82.97
2024-03-05T19:50:10.299Z,82.93
2024-03-05T19:52:37.264Z,83.02
2024-03-05T19:55:04.174Z,83.18
2024-03-05T19:57:30.785Z,82.81
2024-03-05T20:00:00.319Z,83.31
2024-03-05T20:02:28.947Z,83.00
2024-03-05T20:04:55.635Z,83.04
2024-03-05T20:07:22.260Z,83.49
2024-03-05T20:09:48.974Z,83.65
2024-03-05T20:12:15.774Z,83.39
2024-03-05T20:14:42.630Z,83.56
2024-03-05T20:17:09.393Z,83.87
2024-03-05T20:19:36.038Z,83.50
2024-03-05T20:22:03.026Z,83.81
2024-03-05T20:24:29.641Z,84.28
2024-03-05T20:26:56.190Z,84.30
2024-03-05T20:29:22.768Z,84.74
2024-03-05T20:31:49.469Z,84.42
2024-03-05T20:34:16.078Z,85.04
2024-03-05T20:36:42.673Z,84.67
2024-03-05T20:39:09.264Z,84.92
2024-03-05T20:41:35.860Z,84.87
2024-03-05T20:44:02.492Z,85.04
2024-03-05T20:46:29.129Z,85.45
2024-03-05T20:48:55.765Z,85.48
2024-03-05T20:51:22.498Z,85.95
2024-03-05T20:53:49.094Z,85.39
2024-03-05T20:56:15.665Z,85.33
2024-03-05T20:58:42.247Z,85.55
2024-03-05T21:01:08.957Z,85.70
2024-03-05T21:03:35.756Z,85.78
2024-03-05T21:06:03.174Z,85.97
2024-03-05T21:08:30.084Z,85.43
2024-03-05T21:10:57.163Z,84.83
2024-03-05T21:13:23.808Z,84.99
2024-03-05T21:15:50.431Z,85.24
2024-03-05T21:18:17.065Z,85.07
2024-03-05T21:20:43.731Z,85.58
2024-03-05T21:23:10.406Z,85.38
2024-03-05T21:25:50.026Z,84.62
2024-03-05T21:28:23.605Z,84.46
2024-03-05T21:30:50.187Z,84.00
2024-03-05T21:33:16.825Z,84.16
2024-03-05T21:35:43.454Z,84.18
2024-03-05T21:38:10.039Z,84.67
2024-03-05T21:40:36.673Z,84.10
2024-03-05T21:43:03.222Z,84.30
2024-03-05T21:45:29.798Z,84.15
2024-03-05T21:47:56.455Z,83.87
2024-03-05T21:50:23.113Z,83.69
2024-03-05T21:52:49.739Z,83.74
2024-03-05T21:55:16.844Z,84.18
2024-03-05T21:57:43.556Z,85.13
2024-03-05T22:00:10.598Z,85.05
2024-03-05T22:02:38.154Z,84.61
2024-03-05T22:05:04.953Z,84.37
2024-03-05T22:07:31.594Z,84.61
2024-03-05T22:09:58.175Z,84.97
2024-03-05T22:12:24.740Z,84.38
2024-03-05T22:14:51.346Z,85.15
2024-03-05T22:17:17.940Z,85.11
2024-03-05T22:19:44.932Z,85.22
2024-03-05T22:22:11.529Z,86.05
2024-03-05T22:24:38.167Z,86.19
2024-03-05T22:27:04.706Z,85.60
2024-03-05T22:29:31.253Z,85.39
2024-03-05T22:31:57.947Z,85.91
2024-03-05T22:34:24.818Z,85.52
2024-03-05T22:36:51.415Z,85.85
2024-03-05T22:39:18.081Z,85.56
2024-03-05T22:41:44.637Z,85.80
2024-03-05T22:44:11.372Z,85.83
2024-03-05T22:46:38.083Z,86.22
2024-03-05T22:49:04.698Z,86.48
2024-03-05T22:51:31.300Z,86.47
2024-03-05T22:53:57.860Z,86.41
2024-03-05T22:56:24.469Z,86.21
2024-03-05T22:58:51.204Z,86.37
2024-03-05T23:01:17.880Z,86.49
2024-03-05T23:03:44.457Z,86.10
2024-03-05T23:06:15.761Z,86.37
2024-03-05T23:08:45.633Z,86.52
2024-03-05T23:11:12.273Z,86.33
2024-03-05T23:13:38.997Z,86.35
2024-03-05T23:16:05.750Z,86.41
2024-03-05T23:18:32.305Z,85.96
2024-03-05T23:20:58.866Z,86.36
2024-03-05T23:23:25.446Z,86.34
2024-03-05T23:25:52.124Z,86.88
2024-03-05T23:28:18.716Z,86.71
2024-03-05T23:30:46.436Z,86.56
2024-03-05T23:33:13.107Z,86.76
2024-03-05T23:35:39.697Z,86.27
2024-03-05T23:38:06.287Z,86.27
2024-03-05T23:40:32.982Z,86.26
2024-03-05T23:42:59.587Z,85.94
2024-03-05T23:45:26.186Z,86.38
2024-03-05T23:47:52.816Z,86.87
2024-03-05T23:50:19.560Z,87.36
2024-03-05T23:52:46.172Z,86.90
2024-03-05T23:55:12.787Z,87.12
2024-03-05T23:57:39.366Z,87.73
